createdAt,value
2018-05-07T00:00:15.666Z,14.67
2018-05-07T00:01:15.662Z,14.63
2018-05-07T00:02:15.654Z,14.74
2018-05-07T00:03:15.653Z,14.59
2018-05-07T00:04:15.655Z,14.54
2018-05-07T00:05:15.652Z,14.60
2018-05-07T00:06:15.839Z,14.60
2018-05-07T00:07:15.669Z,14.60
2018-05-07T00:08:15.641Z,14.61
2018-05-07T00:09:15.644Z,14.61
2018-05-07T00:10:15.642Z,14.63
2018-05-07T00:11:15.640Z,14.63
2018-05-07T00:12:15.636Z,14.49
2018-05-07T00:13:15.634Z,14.54
2018-05-07T00:14:15.627Z,14.63
2018-05-07T00:15:15.624Z,14.60
2018-05-07T00:16:15.622Z,14.56
2018-05-07T00:17:15.619Z,14.63
2018-05-07T00:18:15.622Z,14.56
2018-05-07T00:19:15.618Z,14.54
2018-05-07T00:20:15.612Z,14.52
2018-05-07T00:21:15.609Z,14.54
2018-05-07T00:22:15.611Z,14.57
2018-05-07T00:23:15.610Z,14.48
2018-05-07T00:24:15.611Z,14.52
2018-05-07T00:25:15.604Z,14.42
2018-05-07T00:26:15.596Z,14.44
2018-05-07T00:27:15.594Z,14.44
2018-05-07T00:28:15.643Z,14.35
2018-05-07T00:29:15.588Z,14.38
2018-05-07T00:30:15.591Z,14.31
2018-05-07T00:31:15.588Z,14.30
2018-05-07T00:32:15.587Z,14.34
2018-05-07T00:33:15.630Z,14.19
2018-05-07T00:34:15.575Z,14.19
2018-05-07T00:35:15.573Z,14.19
2018-05-07T00:36:15.574Z,14.12
2018-05-07T00:37:15.571Z,14.09
2018-05-07T00:38:15.572Z,14.08
2018-05-07T00:39:15.562Z,14.09
2018-05-07T00:40:15.559Z,14.11
2018-05-07T00:41:15.556Z,14.02
2018-05-07T00:42:15.558Z,14.11
2018-05-07T00:43:15.554Z,14.06
2018-05-07T00:44:15.551Z,14.01
2018-05-07T00:45:15.550Z,13.99
2018-05-07T00:46:15.541Z,13.96
2018-05-07T00:47:15.540Z,13.86
2018-05-07T00:48:15.536Z,13.84
2018-05-07T00:49:15.536Z,13.81
2018-05-07T00:50:15.534Z,13.87
2018-05-07T00:51:15.532Z,13.83
2018-05-07T00:52:15.524Z,13.75
2018-05-07T00:53:15.520Z,13.69
2018-05-07T00:54:15.526Z,13.66
2018-05-07T00:55:15.519Z,13.59
2018-05-07T00:56:15.516Z,13.68
2018-05-07T00:57:15.512Z,13.61
2018-05-07T00:58:15.505Z,13.75
2018-05-07T00:59:15.504Z,13.62
2018-05-07T01:00:15.499Z,13.75
2018-05-07T01:01:15.495Z,13.65
2018-05-07T01:02:15.497Z,13.65
2018-05-07T01:03:15.494Z,13.63
2018-05-07T01:04:15.493Z,13.50
2018-05-07T01:05:15.489Z,13.48
2018-05-07T01:06:15.481Z,13.48
2018-05-07T01:07:15.481Z,13.43
2018-05-07T01:08:15.480Z,13.32
2018-05-07T01:09:15.476Z,13.39
2018-05-07T01:10:15.468Z,13.39
2018-05-07T01:11:15.465Z,13.38
2018-05-07T01:12:15.462Z,13.39
2018-05-07T01:13:15.458Z,13.46
2018-05-07T01:14:15.460Z,13.46
2018-05-07T01:15:15.457Z,13.44
2018-05-07T01:16:15.455Z,13.46
2018-05-07T01:17:15.451Z,13.47
2018-05-07T01:18:15.443Z,13.51
2018-05-07T01:19:15.441Z,13.51
2018-05-07T01:20:15.438Z,13.48
2018-05-07T01:21:15.432Z,13.48
2018-05-07T01:22:15.434Z,13.57
2018-05-07T01:23:15.430Z,13.63
2018-05-07T01:24:15.423Z,13.69
2018-05-07T01:25:15.419Z,13.69
2018-05-07T01:26:15.421Z,13.57
2018-05-07T01:27:15.419Z,13.65
2018-05-07T01:28:15.423Z,13.50
2018-05-07T01:29:15.411Z,13.46
2018-05-07T01:30:15.404Z,13.53
2018-05-07T01:31:15.400Z,13.44
2018-05-07T01:32:15.400Z,13.48
2018-05-07T01:33:15.398Z,13.48
2018-05-07T01:34:15.395Z,13.31
2018-05-07T01:35:15.392Z,13.41
2018-05-07T01:36:15.391Z,13.39
2018-05-07T01:37:15.384Z,13.32
2018-05-07T01:38:15.377Z,13.24
2018-05-07T01:39:15.374Z,13.24
2018-05-07T01:40:15.375Z,13.12
2018-05-07T01:41:15.372Z,13.28
2018-05-07T01:42:15.363Z,13.32
2018-05-07T01:43:15.362Z,13.22
2018-05-07T01:44:15.358Z,13.21
2018-05-07T01:45:15.357Z,13.27
2018-05-07T01:46:15.354Z,13.27
2018-05-07T01:47:15.351Z,13.24
2018-05-07T01:48:15.350Z,13.21
2018-05-07T01:49:15.343Z,13.25
2018-05-07T01:50:15.336Z,13.28
2018-05-07T01:51:15.336Z,13.35
2018-05-07T01:52:15.330Z,13.22
2018-05-07T01:53:15.325Z,13.28
2018-05-07T01:54:15.326Z,13.25
2018-05-07T01:55:15.325Z,13.21
2018-05-07T01:56:15.315Z,13.19
2018-05-07T01:57:15.312Z,13.17
2018-05-07T01:58:15.315Z,13.09
2018-05-07T01:59:15.308Z,13.13
2018-05-07T02:00:15.308Z,13.13
2018-05-07T02:01:15.303Z,13.07
2018-05-07T02:02:15.293Z,13.04
2018-05-07T02:03:15.291Z,13.04
2018-05-07T02:04:15.291Z,13.03
2018-05-07T02:05:15.283Z,13.04
2018-05-07T02:06:15.284Z,13.06
2018-05-07T02:07:15.281Z,13.09
2018-05-07T02:08:15.278Z,13.10
2018-05-07T02:09:15.277Z,13.12
2018-05-07T02:10:15.266Z,13.14
2018-05-07T02:11:15.261Z,13.12
2018-05-07T02:12:15.264Z,13.14
2018-05-07T02:13:15.259Z,13.17
2018-05-07T02:14:15.250Z,13.17
2018-05-07T02:15:15.247Z,13.13
2018-05-07T02:16:15.244Z,13.06
2018-05-07T02:17:15.239Z,13.07
2018-05-07T02:18:15.243Z,13.01
2018-05-07T02:19:15.237Z,12.96
2018-05-07T02:20:15.234Z,12.94
2018-05-07T02:21:15.231Z,12.89
2018-05-07T02:22:15.222Z,12.87
2018-05-07T02:23:15.221Z,12.74
2018-05-07T02:24:15.214Z,12.76
2018-05-07T02:25:15.210Z,12.74
2018-05-07T02:26:15.212Z,12.70
2018-05-07T02:27:15.207Z,12.66
2018-05-07T02:28:15.201Z,12.56
2018-05-07T02:29:15.195Z,12.62
2018-05-07T02:30:15.196Z,12.59
2018-05-07T02:31:15.194Z,12.59
2018-05-07T02:32:15.191Z,12.51
2018-05-07T02:33:15.184Z,12.56
2018-05-07T02:34:15.177Z,12.48
2018-05-07T02:35:15.173Z,12.61
2018-05-07T02:36:15.173Z,12.54
2018-05-07T02:37:15.165Z,12.52
2018-05-07T02:38:15.167Z,12.46
2018-05-07T02:39:15.165Z,12.49
2018-05-07T02:40:15.163Z,12.36
2018-05-07T02:41:15.155Z,12.31
2018-05-07T02:42:15.146Z,12.40
2018-05-07T02:43:15.142Z,12.31
2018-05-07T02:44:15.143Z,12.31
2018-05-07T02:45:15.138Z,12.37
2018-05-07T02:46:15.129Z,12.31
2018-05-07T02:47:15.127Z,12.38
2018-05-07T02:48:15.121Z,12.43
2018-05-07T02:49:15.119Z,12.40
2018-05-07T02:50:15.119Z,12.46
2018-05-07T02:51:15.115Z,12.54
2018-05-07T02:52:15.111Z,12.54
2018-05-07T02:53:15.106Z,12.58
2018-05-07T02:54:15.098Z,12.59
2018-05-07T02:55:15.093Z,12.59
2018-05-07T02:56:15.089Z,12.51
2018-05-07T02:57:15.085Z,12.54
2018-05-07T02:58:15.085Z,12.59
2018-05-07T02:59:15.081Z,12.54
2018-05-07T03:00:15.072Z,12.59
2018-05-07T03:01:15.068Z,12.51
2018-05-07T03:02:15.069Z,12.52
2018-05-07T03:03:15.065Z,12.54
2018-05-07T03:04:15.062Z,12.62
2018-05-07T03:05:15.126Z,12.59
2018-05-07T03:06:15.049Z,12.55
2018-05-07T03:07:15.044Z,12.44
2018-05-07T03:08:15.040Z,12.44
2018-05-07T03:09:15.036Z,12.40
2018-05-07T03:10:15.037Z,12.41
2018-05-07T03:11:15.033Z,12.41
2018-05-07T03:12:15.089Z,12.34
2018-05-07T03:13:15.023Z,12.25
2018-05-07T03:14:15.014Z,12.26
2018-05-07T03:15:15.010Z,12.23
2018-05-07T03:16:15.011Z,12.25
2018-05-07T03:17:15.006Z,12.23
2018-05-07T03:18:14.997Z,12.23
2018-05-07T03:19:14.993Z,12.18
2018-05-07T03:20:14.989Z,12.22
2018-05-07T03:21:14.984Z,12.15
2018-05-07T03:22:14.985Z,12.13
2018-05-07T03:23:14.982Z,12.12
2018-05-07T03:24:14.976Z,12.03
2018-05-07T03:25:14.972Z,12.03
2018-05-07T03:26:14.964Z,11.98
2018-05-07T03:27:14.959Z,11.94
2018-05-07T03:28:14.960Z,11.90
2018-05-07T03:29:14.951Z,11.94
2018-05-07T03:30:14.951Z,11.94
2018-05-07T03:31:14.947Z,11.88
2018-05-07T03:32:14.943Z,11.94
2018-05-07T03:33:14.934Z,11.87
2018-05-07T03:34:14.935Z,11.88
2018-05-07T03:35:14.930Z,11.98
2018-05-07T03:36:14.926Z,11.93
2018-05-07T03:37:14.919Z,11.97
2018-05-07T03:38:14.911Z,11.96
2018-05-07T03:39:14.907Z,11.87
2018-05-07T03:40:14.903Z,11.94
2018-05-07T03:41:14.898Z,11.94
2018-05-07T03:42:14.898Z,11.88
2018-05-07T03:43:14.894Z,11.88
2018-05-07T03:44:14.890Z,11.90
2018-05-07T03:45:14.885Z,11.82
2018-05-07T03:46:14.876Z,11.81
2018-05-07T03:47:14.871Z,11.78
2018-05-07T03:48:14.872Z,11.78
2018-05-07T03:49:14.867Z,11.75
2018-05-07T03:50:14.861Z,11.69
2018-05-07T03:51:14.853Z,11.69
2018-05-07T03:52:14.849Z,11.70
2018-05-07T03:53:14.844Z,11.69
2018-05-07T03:54:14.844Z,11.72
2018-05-07T03:55:14.840Z,11.70
2018-05-07T03:56:14.835Z,11.63
2018-05-07T03:57:14.830Z,11.57
2018-05-07T03:58:14.822Z,11.49
2018-05-07T03:59:14.817Z,11.53
2018-05-07T04:00:14.814Z,11.53
2018-05-07T04:01:14.809Z,11.48
2018-05-07T04:02:14.809Z,11.56
2018-05-07T04:03:14.805Z,11.48
2018-05-07T04:04:14.795Z,11.56
2018-05-07T04:05:14.790Z,11.59
2018-05-07T04:06:14.790Z,11.53
2018-05-07T04:07:14.859Z,11.49
2018-05-07T04:08:14.781Z,11.42
2018-05-07T04:09:14.776Z,11.53
2018-05-07T04:10:14.768Z,11.51
2018-05-07T04:11:14.763Z,11.57
2018-05-07T04:12:14.759Z,11.53
2018-05-07T04:13:14.836Z,11.48
2018-05-07T04:14:14.753Z,11.42
2018-05-07T04:15:14.749Z,11.51
2018-05-07T04:16:14.746Z,11.45
2018-05-07T04:17:14.740Z,11.45
2018-05-07T04:18:14.730Z,11.44
2018-05-07T04:19:14.728Z,11.44
2018-05-07T04:20:14.728Z,11.48
2018-05-07T04:21:14.721Z,11.51
2018-05-07T04:22:14.712Z,11.48
2018-05-07T04:23:14.707Z,11.46
2018-05-07T04:24:14.703Z,11.57
2018-05-07T04:25:14.702Z,11.51
2018-05-07T04:26:14.698Z,11.45
2018-05-07T04:27:14.693Z,11.41
2018-05-07T04:28:14.690Z,11.46
2018-05-07T04:29:14.685Z,11.46
2018-05-07T04:30:14.676Z,11.49
2018-05-07T04:31:14.670Z,11.56
2018-05-07T04:32:14.667Z,11.62
2018-05-07T04:33:14.662Z,11.67
2018-05-07T04:34:14.661Z,11.70
2018-05-07T04:35:14.662Z,11.69
2018-05-07T04:36:14.648Z,11.93
2018-05-07T04:37:14.646Z,11.96
2018-05-07T04:38:14.644Z,12.05
2018-05-07T04:39:14.644Z,12.13
2018-05-07T04:40:14.640Z,12.26
2018-05-07T04:41:14.633Z,12.40
2018-05-07T04:42:14.625Z,12.61
2018-05-07T04:43:14.679Z,12.76
2018-05-07T04:44:14.617Z,13.01
2018-05-07T04:45:14.614Z,13.29
2018-05-07T04:46:14.617Z,13.53
2018-05-07T04:47:14.613Z,13.93
2018-05-07T04:48:14.610Z,14.20
2018-05-07T04:49:14.607Z,14.60
2018-05-07T04:50:14.600Z,14.79
2018-05-07T04:51:14.598Z,15.16
2018-05-07T04:52:14.601Z,15.55
2018-05-07T04:53:14.598Z,16.06
2018-05-07T04:54:14.593Z,16.45
2018-05-07T04:55:14.592Z,16.88
2018-05-07T04:56:14.592Z,17.42
2018-05-07T04:57:14.589Z,17.91
2018-05-07T04:58:14.593Z,18.19
2018-05-07T04:59:14.593Z,18.59
2018-05-07T05:00:14.593Z,19.01
2018-05-07T05:01:14.591Z,19.34
2018-05-07T05:02:14.587Z,19.58
2018-05-07T05:03:14.588Z,20.05
2018-05-07T05:04:14.587Z,20.23
2018-05-07T05:05:14.588Z,20.38
2018-05-07T05:06:14.644Z,20.42
2018-05-07T05:07:14.695Z,20.68
2018-05-07T05:08:14.590Z,21.06
2018-05-07T05:09:14.590Z,21.31
2018-05-07T05:10:14.595Z,21.63
2018-05-07T05:11:14.596Z,21.85
2018-05-07T05:12:14.600Z,22.09
2018-05-07T05:13:14.603Z,22.23
2018-05-07T05:14:14.602Z,22.45
2018-05-07T05:15:14.599Z,22.81
2018-05-07T05:16:14.601Z,22.56
2018-05-07T05:17:14.604Z,22.24
2018-05-07T05:18:14.613Z,21.82
2018-05-07T05:19:14.681Z,21.49
2018-05-07T05:20:14.615Z,21.55
2018-05-07T05:21:14.714Z,21.89
2018-05-07T05:22:14.619Z,21.90
2018-05-07T05:23:14.618Z,22.21
2018-05-07T05:24:14.626Z,22.45
2018-05-07T05:25:14.629Z,22.82
2018-05-07T05:26:14.632Z,23.42
2018-05-07T05:27:14.680Z,23.79
2018-05-07T05:28:14.635Z,24.09
2018-05-07T05:29:14.638Z,24.51
2018-05-07T05:30:14.647Z,24.71
2018-05-07T05:31:14.651Z,24.87
2018-05-07T05:32:14.654Z,25.38
2018-05-07T05:33:14.657Z,25.59
2018-05-07T05:34:14.657Z,25.91
2018-05-07T05:35:14.661Z,26.21
2018-05-07T05:36:14.666Z,26.65
2018-05-07T05:37:14.702Z,26.72
2018-05-07T05:38:14.680Z,26.90
2018-05-07T05:39:14.684Z,26.94
2018-05-07T05:40:14.685Z,27.15
2018-05-07T05:41:14.689Z,27.20
2018-05-07T05:42:14.700Z,27.38
2018-05-07T05:43:14.705Z,27.58
2018-05-07T05:44:14.710Z,27.91
2018-05-07T05:45:14.715Z,28.11
2018-05-07T05:46:14.718Z,28.39
2018-05-07T05:47:14.723Z,28.62
2018-05-07T05:48:14.728Z,28.88
2018-05-07T05:49:14.734Z,29.14
2018-05-07T05:50:14.812Z,29.30
2018-05-07T05:51:14.750Z,29.47
2018-05-07T05:52:14.757Z,29.76
2018-05-07T05:53:14.763Z,29.69
2018-05-07T05:54:14.765Z,29.51
2018-05-07T05:55:14.773Z,29.58
2018-05-07T05:56:14.820Z,29.71
2018-05-07T05:57:14.791Z,29.84
2018-05-07T05:58:14.792Z,30.03
2018-05-07T05:59:14.801Z,30.07
2018-05-07T06:00:14.808Z,30.03
2018-05-07T06:01:14.813Z,30.21
2018-05-07T06:02:14.825Z,30.40
2018-05-07T06:03:14.833Z,30.06
2018-05-07T06:04:14.844Z,30.29
2018-05-07T06:05:14.851Z,30.29
2018-05-07T06:06:14.852Z,30.45
2018-05-07T06:07:14.859Z,30.38
2018-05-07T06:08:14.868Z,30.56
2018-05-07T06:09:14.879Z,30.56
2018-05-07T06:10:14.889Z,30.85
2018-05-07T06:11:14.899Z,31.12
2018-05-07T06:12:14.900Z,31.25
2018-05-07T06:13:14.908Z,31.60
2018-05-07T06:14:14.921Z,32.03
2018-05-07T06:15:14.935Z,32.17
2018-05-07T06:16:14.939Z,32.21
2018-05-07T06:17:14.947Z,32.51
2018-05-07T06:18:14.952Z,32.90
2018-05-07T06:19:14.961Z,33.09
2018-05-07T06:20:14.974Z,33.14
2018-05-07T06:21:14.983Z,33.24
2018-05-07T06:22:14.995Z,33.29
2018-05-07T06:23:15.004Z,33.15
2018-05-07T06:24:15.016Z,33.33
2018-05-07T06:25:15.024Z,33.44
2018-05-07T06:26:15.029Z,33.37
2018-05-07T06:27:15.122Z,33.37
2018-05-07T06:28:15.054Z,33.55
2018-05-07T06:29:15.072Z,33.78
2018-05-07T06:30:15.071Z,33.59
2018-05-07T06:31:15.081Z,33.50
2018-05-07T06:32:15.091Z,33.43
2018-05-07T06:33:15.100Z,33.63
2018-05-07T06:34:15.175Z,33.81
2018-05-07T06:35:15.131Z,33.97
2018-05-07T06:36:15.134Z,33.93
2018-05-07T06:37:15.149Z,33.86
2018-05-07T06:38:15.162Z,33.81
2018-05-07T06:39:15.173Z,34.08
2018-05-07T06:40:15.183Z,34.37
2018-05-07T06:41:15.203Z,34.58
2018-05-07T06:42:15.279Z,34.88
2018-05-07T06:43:15.218Z,35.09
2018-05-07T06:44:15.230Z,35.18
2018-05-07T06:45:15.244Z,35.46
2018-05-07T06:46:15.250Z,35.52
2018-05-07T06:47:15.262Z,35.66
2018-05-07T06:48:15.275Z,35.78
2018-05-07T06:49:15.286Z,35.73
2018-05-07T06:50:15.303Z,35.64
2018-05-07T06:51:15.332Z,35.64
2018-05-07T06:52:15.429Z,35.52
2018-05-07T06:53:15.342Z,35.77
2018-05-07T06:54:15.349Z,35.77
2018-05-07T06:55:15.362Z,35.87
2018-05-07T06:56:15.376Z,35.84
2018-05-07T06:57:15.389Z,35.95
2018-05-07T06:58:15.409Z,36.00
2018-05-07T06:59:15.418Z,36.12
2018-05-07T07:00:15.428Z,36.23
2018-05-07T07:01:15.440Z,36.46
2018-05-07T07:02:15.478Z,36.87
2018-05-07T07:03:15.471Z,36.97
2018-05-07T07:04:15.486Z,37.35
2018-05-07T07:05:15.505Z,37.54
2018-05-07T07:06:15.508Z,37.90
2018-05-07T07:07:15.523Z,37.72
2018-05-07T07:08:15.679Z,37.24
2018-05-07T07:09:15.550Z,37.18
2018-05-07T07:10:15.570Z,36.25
2018-05-07T07:11:15.585Z,36.50
2018-05-07T07:12:15.597Z,36.65
2018-05-07T07:13:15.613Z,37.13
2018-05-07T07:14:15.621Z,37.62
2018-05-07T07:15:15.639Z,37.43
2018-05-07T07:16:15.655Z,37.63
2018-05-07T07:17:15.669Z,37.63
2018-05-07T07:18:15.678Z,37.65
2018-05-07T07:19:15.694Z,38.03
2018-05-07T07:20:15.711Z,38.40
2018-05-07T07:21:15.725Z,38.72
2018-05-07T07:22:15.743Z,39.19
2018-05-07T07:23:15.758Z,38.93
2018-05-07T07:24:15.776Z,39.14
2018-05-07T07:25:15.789Z,39.38
2018-05-07T07:26:15.800Z,39.63
2018-05-07T07:27:15.818Z,39.85
2018-05-07T07:28:15.861Z,40.10
2018-05-07T07:29:15.846Z,39.81
2018-05-07T07:30:15.867Z,39.82
2018-05-07T07:31:15.882Z,39.88
2018-05-07T07:32:15.894Z,39.72
2018-05-07T07:33:15.915Z,39.27
2018-05-07T07:34:15.931Z,38.72
2018-05-07T07:35:15.950Z,37.75
2018-05-07T07:36:15.972Z,36.96
2018-05-07T07:37:15.980Z,36.83
2018-05-07T07:38:15.992Z,37.13
2018-05-07T07:39:16.009Z,37.50
2018-05-07T07:40:16.024Z,37.87
2018-05-07T07:41:16.041Z,37.99
2018-05-07T07:42:16.061Z,38.60
2018-05-07T07:43:16.080Z,39.16
2018-05-07T07:44:16.096Z,39.85
2018-05-07T07:45:16.112Z,39.39
2018-05-07T07:46:16.123Z,39.48
2018-05-07T07:47:16.233Z,39.78
2018-05-07T07:48:16.166Z,40.26
2018-05-07T07:49:16.183Z,40.88
2018-05-07T07:50:16.191Z,40.83
2018-05-07T07:51:16.208Z,41.20
2018-05-07T07:52:16.228Z,41.89
2018-05-07T07:53:16.243Z,42.41
2018-05-07T07:54:16.264Z,42.67
2018-05-07T07:55:16.283Z,43.02
2018-05-07T07:56:16.300Z,43.44
2018-05-07T07:57:16.318Z,43.43
2018-05-07T07:58:16.331Z,43.43
2018-05-07T07:59:16.349Z,43.38
2018-05-07T08:00:16.369Z,43.44
2018-05-07T08:01:16.386Z,43.41
2018-05-07T08:02:16.409Z,43.68
2018-05-07T08:03:16.429Z,43.91
2018-05-07T08:04:16.522Z,44.18
2018-05-07T08:05:16.462Z,44.30
2018-05-07T08:06:16.484Z,43.89
2018-05-07T08:07:16.503Z,44.56
2018-05-07T08:08:16.524Z,44.51
2018-05-07T08:09:16.541Z,44.47
2018-05-07T08:10:16.556Z,44.53
2018-05-07T08:11:16.578Z,44.51
2018-05-07T08:12:16.642Z,44.78
2018-05-07T08:13:16.614Z,44.84
2018-05-07T08:14:16.638Z,44.92
2018-05-07T08:15:16.658Z,45.11
2018-05-07T08:16:16.682Z,44.62
2018-05-07T08:17:16.700Z,44.94
2018-05-07T08:18:16.714Z,45.29
2018-05-07T08:19:16.735Z,45.64
2018-05-07T08:20:16.759Z,45.87
2018-05-07T08:21:16.785Z,45.44
2018-05-07T08:22:16.796Z,44.40
2018-05-07T08:23:16.815Z,44.42
2018-05-07T08:24:16.836Z,44.64
2018-05-07T08:25:16.860Z,44.76
2018-05-07T08:26:16.883Z,43.79
2018-05-07T08:27:16.904Z,43.29
2018-05-07T08:28:16.925Z,43.41
2018-05-07T08:29:16.945Z,43.36
2018-05-07T08:30:16.963Z,44.02
2018-05-07T08:31:16.984Z,44.08
2018-05-07T08:32:17.006Z,44.37
2018-05-07T08:33:17.028Z,44.84
2018-05-07T08:34:17.054Z,44.96
2018-05-07T08:35:17.075Z,44.98
2018-05-07T08:36:17.093Z,45.41
2018-05-07T08:37:17.117Z,45.80
2018-05-07T08:38:17.140Z,45.83
2018-05-07T08:39:17.163Z,45.98
2018-05-07T08:40:17.184Z,45.61
2018-05-07T08:41:17.206Z,44.64
2018-05-07T08:42:17.246Z,43.31
2018-05-07T08:43:17.246Z,41.57
2018-05-07T08:44:17.273Z,40.83
2018-05-07T08:45:17.291Z,39.53
2018-05-07T08:46:17.319Z,37.33
2018-05-07T08:47:17.340Z,37.23
2018-05-07T08:48:17.362Z,38.07
2018-05-07T08:49:17.383Z,39.00
2018-05-07T08:50:17.400Z,39.90
2018-05-07T08:51:17.421Z,39.99
2018-05-07T08:52:17.451Z,38.97
2018-05-07T08:53:17.516Z,39.88
2018-05-07T08:54:17.485Z,39.62
2018-05-07T08:55:17.506Z,40.04
2018-05-07T08:56:17.529Z,41.02
2018-05-07T08:57:17.549Z,41.33
2018-05-07T08:58:17.580Z,41.35
2018-05-07T08:59:17.599Z,40.75
2018-05-07T09:00:17.621Z,38.65
2018-05-07T09:01:17.641Z,38.07
2018-05-07T09:02:17.761Z,37.38
2018-05-07T09:03:17.683Z,37.28
2018-05-07T09:04:17.701Z,36.35
2018-05-07T09:05:17.722Z,37.04
2018-05-07T09:06:17.747Z,37.18
2018-05-07T09:07:17.769Z,37.63
2018-05-07T09:08:17.793Z,38.00
2018-05-07T09:09:17.805Z,37.59
2018-05-07T09:10:17.832Z,38.84
2018-05-07T09:11:17.851Z,39.73
2018-05-07T09:12:17.873Z,40.82
2018-05-07T09:13:17.897Z,41.33
2018-05-07T09:14:17.914Z,40.45
2018-05-07T09:15:17.933Z,40.58
2018-05-07T09:16:17.957Z,40.63
2018-05-07T09:17:17.972Z,38.75
2018-05-07T09:18:17.999Z,38.60
2018-05-07T09:19:18.020Z,38.97
2018-05-07T09:20:18.040Z,39.29
2018-05-07T09:21:18.060Z,38.70
2018-05-07T09:22:18.077Z,38.82
2018-05-07T09:23:18.098Z,39.38
2018-05-07T09:24:18.124Z,39.69
2018-05-07T09:25:18.144Z,39.47
2018-05-07T09:26:18.160Z,39.41
2018-05-07T09:27:18.182Z,39.62
2018-05-07T09:28:18.204Z,40.56
2018-05-07T09:29:18.223Z,40.41
2018-05-07T09:30:18.250Z,40.98
2018-05-07T09:31:18.272Z,40.13
2018-05-07T09:32:18.292Z,37.93
2018-05-07T09:33:18.313Z,38.02
2018-05-07T09:34:18.328Z,38.09
2018-05-07T09:35:18.349Z,38.71
2018-05-07T09:36:18.370Z,39.17
2018-05-07T09:37:18.390Z,40.26
2018-05-07T09:38:18.415Z,39.27
2018-05-07T09:39:18.438Z,39.65
2018-05-07T09:40:18.454Z,39.35
2018-05-07T09:41:18.475Z,39.62
2018-05-07T09:42:18.507Z,39.34
2018-05-07T09:43:18.594Z,37.88
2018-05-07T09:44:18.544Z,36.91
2018-05-07T09:45:18.563Z,37.25
2018-05-07T09:46:18.579Z,37.23
2018-05-07T09:47:18.605Z,37.63
2018-05-07T09:48:18.683Z,38.31
2018-05-07T09:49:18.644Z,38.87
2018-05-07T09:50:18.666Z,38.59
2018-05-07T09:51:18.688Z,38.31
2018-05-07T09:52:18.709Z,39.06
2018-05-07T09:53:18.732Z,40.10
2018-05-07T09:54:18.745Z,40.78
2018-05-07T09:55:18.765Z,41.14
2018-05-07T09:56:18.792Z,41.93
2018-05-07T09:57:18.814Z,42.38
2018-05-07T09:58:18.828Z,41.95
2018-05-07T09:59:18.858Z,41.33
2018-05-07T10:00:18.872Z,41.14
2018-05-07T10:01:18.891Z,40.15
2018-05-07T10:02:18.916Z,39.46
2018-05-07T10:03:18.938Z,39.24
2018-05-07T10:04:18.964Z,38.04
2018-05-07T10:05:18.980Z,37.81
2018-05-07T10:06:18.999Z,37.11
2018-05-07T10:07:19.019Z,36.75
2018-05-07T10:08:19.040Z,35.28
2018-05-07T10:09:19.059Z,34.37
2018-05-07T10:10:19.092Z,34.67
2018-05-07T10:11:19.106Z,35.40
2018-05-07T10:12:19.121Z,36.50
2018-05-07T10:13:19.140Z,37.60
2018-05-07T10:14:19.166Z,36.93
2018-05-07T10:15:19.190Z,36.30
2018-05-07T10:16:19.204Z,36.68
2018-05-07T10:17:19.223Z,37.35
2018-05-07T10:18:19.238Z,38.37
2018-05-07T10:19:19.258Z,39.41
2018-05-07T10:20:19.281Z,39.92
2018-05-07T10:21:19.297Z,39.50
2018-05-07T10:22:19.324Z,40.57
2018-05-07T10:23:19.341Z,41.57
2018-05-07T10:24:19.379Z,41.83
2018-05-07T10:25:19.381Z,42.29
2018-05-07T10:26:19.416Z,42.55
2018-05-07T10:27:19.421Z,43.17
2018-05-07T10:28:19.442Z,42.41
2018-05-07T10:29:19.461Z,42.34
2018-05-07T10:30:19.477Z,40.64
2018-05-07T10:31:19.498Z,40.28
2018-05-07T10:32:19.519Z,40.71
2018-05-07T10:33:19.539Z,39.61
2018-05-07T10:34:19.564Z,39.27
2018-05-07T10:35:19.592Z,39.91
2018-05-07T10:36:19.606Z,40.56
2018-05-07T10:37:19.638Z,41.10
2018-05-07T10:38:19.643Z,41.28
2018-05-07T10:39:19.664Z,40.24
2018-05-07T10:40:19.685Z,40.64
2018-05-07T10:41:19.705Z,40.61
2018-05-07T10:42:19.731Z,40.48
2018-05-07T10:43:19.753Z,40.10
2018-05-07T10:44:19.768Z,40.73
2018-05-07T10:45:19.788Z,41.44
2018-05-07T10:46:19.813Z,42.29
2018-05-07T10:47:19.834Z,42.65
2018-05-07T10:48:19.855Z,43.40
2018-05-07T10:49:19.876Z,43.75
2018-05-07T10:50:19.895Z,43.86
2018-05-07T10:51:19.912Z,43.77
2018-05-07T10:52:19.934Z,43.87
2018-05-07T10:53:19.954Z,44.09
2018-05-07T10:54:19.980Z,43.36
2018-05-07T10:55:20.003Z,41.96
2018-05-07T10:56:20.024Z,41.80
2018-05-07T10:57:20.045Z,40.72
2018-05-07T10:58:20.061Z,39.10
2018-05-07T10:59:20.081Z,37.28
2018-05-07T11:00:20.109Z,35.87
2018-05-07T11:01:20.128Z,34.99
2018-05-07T11:02:20.144Z,34.73
2018-05-07T11:03:20.164Z,34.71
2018-05-07T11:04:20.237Z,34.80
2018-05-07T11:05:20.204Z,35.52
2018-05-07T11:06:20.228Z,36.27
2018-05-07T11:07:20.332Z,36.71
2018-05-07T11:08:20.267Z,37.28
2018-05-07T11:09:20.285Z,37.46
2018-05-07T11:10:20.300Z,37.91
2018-05-07T11:11:20.320Z,38.07
2018-05-07T11:12:20.343Z,38.44
2018-05-07T11:13:20.357Z,37.91
2018-05-07T11:14:20.382Z,37.60
2018-05-07T11:15:20.401Z,37.25
2018-05-07T11:16:20.414Z,36.27
2018-05-07T11:17:20.437Z,34.93
2018-05-07T11:18:20.460Z,33.71
2018-05-07T11:19:20.473Z,33.49
2018-05-07T11:20:20.492Z,33.21
2018-05-07T11:21:20.509Z,33.55
2018-05-07T11:22:20.521Z,33.72
2018-05-07T11:23:20.538Z,33.79
2018-05-07T11:24:20.554Z,33.89
2018-05-07T11:25:20.570Z,33.11
2018-05-07T11:26:20.590Z,32.87
2018-05-07T11:27:20.606Z,32.90
2018-05-07T11:28:20.623Z,32.91
2018-05-07T11:29:20.639Z,32.85
2018-05-07T11:30:20.649Z,32.32
2018-05-07T11:31:20.661Z,32.21
2018-05-07T11:32:20.680Z,31.52
2018-05-07T11:33:20.691Z,30.96
2018-05-07T11:34:20.701Z,30.61
2018-05-07T11:35:20.714Z,30.46
2018-05-07T11:36:20.727Z,30.23
2018-05-07T11:37:20.738Z,30.23
2018-05-07T11:38:20.756Z,30.21
2018-05-07T11:39:20.769Z,30.26
2018-05-07T11:40:20.779Z,29.84
2018-05-07T11:41:20.788Z,29.62
2018-05-07T11:42:20.795Z,29.66
2018-05-07T11:43:20.806Z,29.23
2018-05-07T11:44:20.817Z,28.70
2018-05-07T11:45:20.826Z,28.48
2018-05-07T11:46:20.841Z,28.72
2018-05-07T11:47:20.858Z,28.64
2018-05-07T11:48:20.855Z,28.70
2018-05-07T11:49:20.869Z,28.61
2018-05-07T11:50:20.880Z,28.76
2018-05-07T11:51:20.887Z,28.88
2018-05-07T11:52:20.896Z,28.77
2018-05-07T11:53:20.903Z,28.72
2018-05-07T11:54:20.907Z,28.69
2018-05-07T11:55:20.916Z,28.76
2018-05-07T11:56:20.924Z,29.00
2018-05-07T11:57:20.932Z,29.15
2018-05-07T11:58:20.947Z,29.08
2018-05-07T11:59:20.957Z,29.11
2018-05-07T12:00:20.965Z,29.00
2018-05-07T12:01:20.967Z,29.12
2018-05-07T12:02:20.999Z,29.29
2018-05-07T12:03:20.978Z,29.39
2018-05-07T12:04:20.992Z,29.49
2018-05-07T12:05:20.997Z,29.58
2018-05-07T12:06:21.001Z,29.42
2018-05-07T12:07:21.013Z,28.98
2018-05-07T12:08:21.018Z,28.55
2018-05-07T12:09:21.024Z,28.52
2018-05-07T12:10:21.036Z,28.65
2018-05-07T12:11:21.043Z,28.64
2018-05-07T12:12:21.051Z,28.48
2018-05-07T12:13:21.057Z,28.46
2018-05-07T12:14:21.060Z,28.45
2018-05-07T12:15:21.067Z,28.35
2018-05-07T12:16:21.074Z,28.25
2018-05-07T12:17:21.078Z,28.32
2018-05-07T12:18:21.090Z,28.01
2018-05-07T12:19:21.103Z,27.95
2018-05-07T12:20:21.101Z,27.99
2018-05-07T12:21:21.113Z,28.02
2018-05-07T12:22:21.117Z,27.90
2018-05-07T12:23:21.184Z,27.83
2018-05-07T12:24:21.132Z,27.61
2018-05-07T12:25:21.145Z,27.52
2018-05-07T12:26:21.140Z,27.76
2018-05-07T12:27:21.146Z,28.01
2018-05-07T12:28:21.153Z,28.14
2018-05-07T12:29:21.163Z,28.36
2018-05-07T12:30:21.170Z,28.52
2018-05-07T12:31:21.260Z,28.73
2018-05-07T12:32:21.182Z,28.64
2018-05-07T12:33:21.193Z,28.64
2018-05-07T12:34:21.189Z,28.55
2018-05-07T12:35:21.197Z,28.58
2018-05-07T12:36:21.206Z,28.69
2018-05-07T12:37:21.211Z,28.73
2018-05-07T12:38:21.213Z,28.76
2018-05-07T12:39:21.222Z,28.77
2018-05-07T12:40:21.227Z,28.80
2018-05-07T12:41:21.235Z,28.46
2018-05-07T12:42:21.244Z,28.50
2018-05-07T12:43:21.250Z,28.46
2018-05-07T12:44:21.256Z,28.30
2018-05-07T12:45:21.265Z,28.14
2018-05-07T12:46:21.264Z,28.20
2018-05-07T12:47:21.270Z,28.24
2018-05-07T12:48:21.277Z,28.32
2018-05-07T12:49:21.286Z,28.46
2018-05-07T12:50:21.292Z,28.48
2018-05-07T12:51:21.298Z,28.64
2018-05-07T12:52:21.390Z,28.74